createdAt,value
2023-04-21T00:00:40.975Z,6.56
2023-04-21T00:03:12.969Z,6.57
2023-04-21T00:05:42.996Z,6.46
2023-04-21T00:08:11.761Z,6.44
2023-04-21T00:10:40.642Z,6.47
2023-04-21T00:13:09.749Z,6.43
2023-04-21T00:15:38.883Z,6.42
2023-04-21T00:18:08.543Z,6.35
2023-04-21T00:20:44.766Z,6.37
2023-04-21T00:23:17.104Z,6.35
2023-04-21T00:25:46.376Z,6.32
2023-04-21T00:37:32.698Z,6.17
2023-04-21T00:40:01.231Z,6.22
2023-04-21T00:42:30.619Z,6.12
2023-04-21T00:45:00.132Z,6.16
2023-04-21T00:47:28.729Z,6.15
2023-04-21T00:49:57.270Z,6.16
2023-04-21T00:52:26.148Z,6.13
2023-04-21T00:54:56.910Z,6.05
2023-04-21T00:57:26.622Z,6.14
2023-04-21T00:59:55.861Z,6.07
2023-04-21T01:02:26.664Z,6.09
2023-04-21T01:04:55.305Z,6.12
2023-04-21T01:07:24.204Z,6.15
2023-04-21T01:09:52.718Z,6.12
2023-04-21T01:12:23.038Z,6.09
2023-04-21T01:14:52.418Z,6.07
2023-04-21T01:17:20.984Z,6.06
2023-04-21T01:19:50.449Z,6.08
2023-04-21T01:22:20.597Z,6.08
2023-04-21T01:24:50.909Z,6.01
2023-04-21T01:27:21.851Z,6.01
2023-04-21T01:29:51.900Z,6.09
2023-04-21T01:32:22.893Z,6.11
2023-04-21T01:34:54.760Z,6.07
2023-04-21T01:37:28.303Z,6.16
2023-04-21T01:39:58.517Z,6.17
2023-04-21T01:42:29.541Z,6.15
2023-04-21T01:45:00.878Z,6.09
2023-04-21T01:47:29.656Z,6.11
2023-04-21T01:49:58.102Z,6.13
2023-04-21T01:52:28.304Z,6.03
2023-04-21T01:54:57.195Z,6.08
2023-04-21T01:57:25.781Z,6.13
2023-04-21T01:59:54.636Z,6.10
2023-04-21T02:02:23.312Z,6.14
2023-04-21T02:04:52.599Z,6.14
2023-04-21T02:07:22.492Z,6.15
2023-04-21T02:09:52.210Z,6.23
2023-04-21T02:12:20.600Z,6.23
2023-04-21T02:14:49.660Z,6.23
2023-04-21T02:17:19.784Z,6.24
2023-04-21T02:19:48.452Z,6.25
2023-04-21T02:22:17.233Z,6.21
2023-04-21T02:24:45.697Z,6.24
2023-04-21T02:27:16.617Z,6.27
2023-04-21T02:29:45.407Z,6.30
2023-04-21T02:32:25.106Z,6.24
2023-04-21T02:34:55.599Z,6.29
2023-04-21T02:37:25.757Z,6.33
2023-04-21T02:39:55.411Z,6.37
2023-04-21T02:42:25.412Z,6.39
2023-04-21T02:44:54.235Z,6.38
2023-04-21T02:47:22.806Z,6.31
2023-04-21T02:49:51.224Z,6.49
2023-04-21T02:52:20.437Z,6.44
2023-04-21T02:54:48.766Z,6.43
2023-04-21T02:57:17.332Z,6.40
2023-04-21T02:59:47.401Z,6.47
2023-04-21T03:02:15.903Z,6.44
2023-04-21T03:04:44.804Z,6.39
2023-04-21T03:07:14.617Z,6.35
2023-04-21T03:09:42.925Z,6.41
2023-04-21T03:12:11.467Z,6.32
2023-04-21T03:14:40.224Z,6.36
2023-04-21T03:17:10.530Z,6.28
2023-04-21T03:19:38.893Z,6.33
2023-04-21T03:22:07.807Z,6.38
2023-04-21T03:24:37.291Z,6.28
2023-04-21T03:27:09.162Z,6.33
2023-04-21T03:29:39.154Z,6.33
2023-04-21T03:32:07.477Z,6.25
2023-04-21T03:34:37.512Z,6.18
2023-04-21T03:37:07.012Z,6.18
2023-04-21T03:39:35.386Z,6.06
2023-04-21T03:42:05.401Z,6.04
2023-04-21T03:44:33.750Z,6.02
2023-04-21T03:47:04.621Z,6.01
2023-04-21T03:49:37.127Z,6.00
2023-04-21T03:52:06.273Z,5.99
2023-04-21T03:54:34.600Z,5.95
2023-04-21T03:57:03.208Z,5.87
2023-04-21T03:59:31.860Z,5.86
2023-04-21T04:02:00.290Z,5.84
2023-04-21T04:04:29.075Z,5.84
2023-04-21T04:06:59.123Z,5.82
2023-04-21T04:09:27.706Z,5.85
2023-04-21T04:11:56.278Z,5.90
2023-04-21T04:14:24.799Z,6.00
2023-04-21T04:16:53.644Z,6.02
2023-04-21T04:19:22.636Z,6.09
2023-04-21T04:21:51.195Z,6.19
2023-04-21T04:24:22.369Z,6.22
2023-04-21T04:26:51.089Z,6.39
2023-04-21T04:29:20.242Z,6.52
2023-04-21T04:31:49.720Z,6.71
2023-04-21T04:34:18.795Z,6.72
2023-04-21T04:36:48.335Z,6.90
2023-04-21T04:39:19.162Z,7.03
2023-04-21T04:41:50.049Z,7.10
2023-04-21T04:44:20.080Z,7.25
2023-04-21T04:46:50.226Z,7.36
2023-04-21T04:49:18.908Z,7.53
2023-04-21T04:51:47.581Z,7.64
2023-04-21T04:54:16.535Z,7.75
2023-04-21T04:56:45.376Z,7.81
2023-04-21T04:59:16.000Z,7.98
2023-04-21T05:01:44.650Z,8.00
2023-04-21T05:04:16.882Z,8.05
2023-04-21T05:06:48.507Z,8.06
2023-04-21T05:09:36.522Z,8.12
2023-04-21T05:12:05.347Z,8.17
2023-04-21T05:14:35.415Z,8.27
2023-04-21T05:17:05.194Z,8.34
2023-04-21T05:19:37.014Z,8.47
2023-04-21T05:22:06.751Z,8.44
2023-04-21T05:24:35.522Z,8.48
2023-04-21T05:27:07.688Z,8.59
2023-04-21T05:29:37.679Z,8.61
2023-04-21T05:32:06.252Z,8.65
2023-04-21T05:34:35.051Z,8.74
2023-04-21T05:37:04.510Z,8.82
2023-04-21T05:39:32.953Z,8.87
2023-04-21T05:42:02.649Z,8.96
2023-04-21T05:44:31.119Z,8.98
2023-04-21T05:47:00.744Z,8.95
2023-04-21T05:49:29.140Z,9.09
2023-04-21T05:51:57.786Z,9.00
2023-04-21T05:54:26.448Z,9.05
2023-04-21T05:56:54.991Z,9.12
2023-04-21T05:59:23.600Z,9.16
2023-04-21T06:01:51.863Z,9.16
2023-04-21T06:04:22.197Z,9.19
2023-04-21T06:06:51.730Z,9.26
2023-04-21T06:09:20.242Z,9.28
2023-04-21T06:11:48.692Z,9.28
2023-04-21T06:14:17.159Z,9.41
2023-04-21T06:16:45.763Z,9.39
2023-04-21T06:19:14.114Z,9.45
2023-04-21T06:21:43.913Z,9.58
2023-04-21T06:24:12.578Z,9.77
2023-04-21T06:26:41.047Z,9.94
2023-04-21T06:29:09.782Z,10.08
2023-04-21T06:31:38.186Z,10.26
2023-04-21T06:34:06.707Z,10.41
2023-04-21T06:36:34.947Z,10.77
2023-04-21T06:39:05.289Z,11.02
2023-04-21T06:41:33.744Z,11.47
2023-04-21T06:44:23.322Z,11.63
2023-04-21T06:46:52.167Z,11.99
2023-04-21T06:49:21.008Z,12.33
2023-04-21T06:51:49.606Z,12.80
2023-04-21T06:54:19.608Z,12.93
2023-04-21T06:56:48.200Z,13.32
2023-04-21T06:59:16.883Z,13.39
2023-04-21T07:01:45.521Z,13.63
2023-04-21T07:04:13.908Z,13.87
2023-04-21T07:06:43.663Z,13.88
2023-04-21T07:09:12.177Z,13.94
2023-04-21T07:11:42.328Z,13.98
2023-04-21T07:14:11.237Z,13.91
2023-04-21T07:16:40.011Z,13.88
2023-04-21T07:19:08.644Z,13.80
2023-04-21T07:21:38.105Z,14.03
2023-04-21T07:24:07.543Z,14.22
2023-04-21T07:26:36.138Z,14.31
2023-04-21T07:29:06.035Z,14.53
2023-04-21T07:31:35.178Z,14.80
2023-04-21T07:34:04.172Z,14.90
2023-04-21T07:36:33.385Z,15.30
2023-04-21T07:39:04.313Z,15.51
2023-04-21T07:41:33.117Z,17.51
2023-04-21T07:44:01.667Z,18.95
2023-04-21T07:46:32.206Z,18.97
2023-04-21T07:49:05.835Z,18.85
2023-04-21T07:51:34.366Z,18.18
2023-04-21T07:54:03.471Z,16.97
2023-04-21T07:56:31.887Z,16.53
2023-04-21T07:59:00.428Z,16.20
2023-04-21T08:01:30.391Z,15.67
2023-04-21T08:03:59.029Z,15.41
2023-04-21T08:06:27.888Z,15.02
2023-04-21T08:08:56.332Z,15.18
2023-04-21T08:11:24.903Z,14.68
2023-04-21T08:13:53.421Z,14.95
2023-04-21T08:16:22.391Z,14.84
2023-04-21T08:19:00.053Z,14.95
2023-04-21T08:21:30.159Z,14.92
2023-04-21T08:24:01.929Z,14.72
2023-04-21T08:26:31.377Z,14.76
2023-04-21T08:29:01.185Z,14.96
2023-04-21T08:31:31.523Z,14.80
2023-04-21T08:34:03.208Z,15.07
2023-04-21T08:36:33.884Z,15.34
2023-04-21T08:39:02.511Z,15.63
2023-04-21T08:41:30.926Z,15.86
2023-04-21T08:43:59.742Z,16.30
2023-04-21T08:46:29.717Z,16.15
2023-04-21T08:49:02.254Z,16.31
2023-04-21T08:51:31.945Z,16.73
2023-04-21T08:54:00.523Z,16.80
2023-04-21T08:56:28.972Z,17.14
2023-04-21T08:58:57.643Z,17.58
2023-04-21T09:01:26.199Z,19.56
2023-04-21T09:03:54.906Z,20.78
2023-04-21T09:06:24.943Z,21.32
2023-04-21T09:08:57.127Z,22.41
2023-04-21T09:11:25.954Z,21.40
2023-04-21T09:13:58.521Z,20.26
2023-04-21T09:16:33.348Z,19.11
2023-04-21T09:19:02.419Z,18.28
2023-04-21T09:21:33.008Z,17.76
2023-04-21T09:24:06.717Z,17.68
2023-04-21T09:26:37.779Z,17.21
2023-04-21T09:29:07.807Z,16.91
2023-04-21T09:31:37.425Z,16.67
2023-04-21T09:34:19.888Z,16.73
2023-04-21T09:36:49.928Z,16.62
2023-04-21T09:41:50.037Z,16.62
2023-04-21T09:44:18.993Z,16.24
2023-04-21T09:46:50.929Z,16.11
2023-04-21T09:49:20.276Z,16.16
2023-04-21T09:52:16.986Z,16.54
2023-04-21T09:54:46.910Z,16.91
2023-04-21T09:57:20.949Z,17.08
2023-04-21T09:59:56.198Z,17.30
2023-04-21T10:02:28.073Z,19.97
2023-04-21T10:04:57.269Z,22.21
2023-04-21T10:07:27.465Z,23.92
2023-04-21T10:09:57.437Z,24.90
2023-04-21T10:12:27.696Z,24.30
2023-04-21T10:15:06.187Z,23.03
2023-04-21T10:17:38.587Z,21.57
2023-04-21T10:20:09.989Z,22.04
2023-04-21T10:22:39.938Z,23.42
2023-04-21T10:25:10.434Z,24.65
2023-04-21T10:27:43.270Z,26.06
2023-04-21T10:30:23.745Z,26.45
2023-04-21T10:33:04.521Z,28.10
2023-04-21T10:36:00.536Z,27.17
2023-04-21T10:38:41.369Z,26.70
2023-04-21T10:41:32.503Z,25.96
2023-04-21T10:44:01.538Z,26.52
2023-04-21T10:46:34.353Z,27.57
2023-04-21T10:49:13.432Z,27.28
2023-04-21T10:52:07.527Z,28.33
2023-04-21T10:54:46.125Z,26.87
2023-04-21T10:57:17.051Z,23.99
2023-04-21T10:59:46.639Z,22.63
2023-04-21T11:02:17.377Z,22.15
2023-04-21T11:04:49.026Z,21.89
2023-04-21T11:07:19.059Z,21.56
2023-04-21T11:09:51.281Z,21.10
2023-04-21T11:12:20.093Z,21.11
2023-04-21T11:14:49.743Z,20.69
2023-04-21T11:17:21.130Z,20.44
2023-04-21T11:19:54.063Z,19.99
2023-04-21T11:22:24.597Z,20.70
2023-04-21T11:24:56.692Z,21.00
2023-04-21T11:27:28.373Z,21.61
2023-04-21T11:29:57.513Z,21.58
2023-04-21T11:32:26.314Z,22.77
2023-04-21T11:34:56.071Z,23.87
2023-04-21T11:37:28.454Z,23.75
2023-04-21T11:40:03.518Z,22.97
2023-04-21T11:42:34.735Z,22.70
2023-04-21T11:45:03.643Z,22.15
2023-04-21T11:47:33.493Z,21.48
2023-04-21T11:50:04.336Z,20.62
2023-04-21T11:52:35.718Z,20.12
2023-04-21T11:55:08.628Z,19.84
2023-04-21T11:57:38.156Z,19.34
2023-04-21T12:00:09.523Z,19.67
2023-04-21T12:02:38.478Z,19.38
2023-04-21T12:05:09.742Z,19.02
2023-04-21T12:07:41.172Z,18.98
2023-04-21T12:10:14.410Z,19.17
2023-04-21T12:12:44.720Z,18.98
2023-04-21T12:15:15.216Z,18.59
2023-04-21T12:17:47.241Z,18.13
2023-04-21T12:20:18.677Z,18.09
2023-04-21T12:22:47.719Z,17.90
2023-04-21T12:25:17.955Z,17.85
2023-04-21T12:27:51.368Z,17.71
2023-04-21T12:30:20.391Z,17.33
2023-04-21T12:32:52.449Z,17.17
2023-04-21T12:35:21.193Z,16.81
2023-04-21T12:37:49.882Z,16.56
2023-04-21T12:40:20.818Z,16.47
2023-04-21T12:42:50.137Z,16.35
2023-04-21T12:45:19.076Z,16.34
2023-04-21T12:47:47.532Z,16.06
2023-04-21T12:50:17.069Z,15.86
2023-04-21T12:52:45.905Z,15.79
2023-04-21T12:55:14.855Z,15.51
2023-04-21T12:57:45.066Z,15.41
2023-04-21T13:00:15.119Z,15.17
2023-04-21T13:02:43.971Z,14.97
2023-04-21T13:05:13.542Z,14.77
2023-04-21T13:07:42.535Z,14.62
2023-04-21T13:10:11.965Z,14.71
2023-04-21T13:12:42.862Z,14.62
2023-04-21T13:15:13.713Z,14.65
2023-04-21T13:17:42.749Z,14.62
2023-04-21T13:20:12.457Z,14.80
2023-04-21T13:22:41.147Z,14.80
2023-04-21T13:25:10.920Z,14.91
2023-04-21T13:27:40.160Z,15.21
2023-04-21T13:30:10.306Z,15.34
2023-04-21T13:32:41.072Z,15.46
2023-04-21T13:35:11.075Z,15.56
2023-04-21T13:37:40.247Z,15.79
2023-04-21T13:40:10.841Z,15.97
2023-04-21T13:42:39.944Z,16.28
2023-04-21T13:45:09.779Z,16.01
2023-04-21T13:47:40.075Z,16.00
2023-04-21T13:50:09.882Z,15.98
2023-04-21T13:52:38.275Z,16.41
2023-04-21T13:55:07.715Z,16.80
2023-04-21T13:57:37.939Z,16.50
2023-04-21T14:00:09.420Z,16.34
2023-04-21T14:02:41.051Z,16.32
2023-04-21T14:05:10.482Z,16.22
2023-04-21T14:07:39.434Z,16.89
2023-04-21T14:10:09.380Z,16.98
2023-04-21T14:12:38.018Z,16.90
2023-04-21T14:15:08.070Z,16.78
2023-04-21T14:17:37.055Z,17.01
2023-04-21T14:20:09.668Z,17.12
2023-04-21T14:22:38.311Z,17.01
2023-04-21T14:25:07.632Z,17.10
2023-04-21T14:27:36.182Z,17.05
2023-04-21T14:30:05.155Z,16.93
2023-04-21T14:32:34.263Z,16.80
2023-04-21T14:35:05.020Z,16.86
2023-04-21T14:37:35.071Z,16.96
2023-04-21T14:40:04.246Z,16.87
2023-04-21T14:42:32.671Z,16.98
2023-04-21T14:45:01.464Z,16.87
2023-04-21T14:47:30.065Z,16.75
2023-04-21T14:49:58.612Z,16.59
2023-04-21T14:52:27.704Z,16.71
2023-04-21T14:54:57.615Z,16.87
2023-04-21T14:57:27.310Z,16.72
2023-04-21T14:59:56.278Z,16.57
2023-04-21T15:02:24.829Z,16.54
2023-04-21T15:04:53.418Z,16.51
2023-04-21T15:07:23.866Z,16.55
2023-04-21T15:09:53.560Z,16.56
2023-04-21T15:12:23.601Z,16.56
2023-04-21T15:14:52.173Z,16.57
2023-04-21T15:17:20.602Z,16.59
2023-04-21T15:19:49.893Z,16.68
2023-04-21T15:22:18.287Z,16.42
2023-04-21T15:24:48.500Z,16.51
2023-04-21T15:27:17.609Z,16.46
2023-04-21T15:29:47.414Z,16.35
2023-04-21T15:32:15.792Z,16.38
2023-04-21T15:34:44.240Z,16.39
2023-04-21T15:37:13.015Z,16.41
2023-04-21T15:39:41.621Z,16.41
2023-04-21T15:42:10.215Z,16.30
2023-04-21T15:44:39.671Z,16.20
2023-04-21T15:47:09.390Z,16.21
2023-04-21T15:49:38.013Z,16.26
2023-04-21T15:52:07.291Z,16.35
2023-04-21T15:54:35.965Z,16.41
2023-04-21T15:57:05.682Z,16.30
2023-04-21T15:59:34.610Z,16.30
2023-04-21T16:02:03.338Z,16.35
2023-04-21T16:04:33.388Z,16.39
2023-04-21T16:07:02.050Z,16.29
2023-04-21T16:09:30.629Z,16.26
2023-04-21T16:11:59.174Z,16.12
2023-04-21T16:14:29.062Z,16.09
2023-04-21T16:17:02.415Z,16.00
2023-04-21T16:19:32.366Z,15.85
2023-04-21T16:22:01.233Z,15.86
2023-04-21T16:24:29.666Z,15.81
2023-04-21T16:26:59.541Z,15.88
2023-04-21T16:29:28.019Z,15.93
2023-04-21T16:31:56.431Z,15.93
2023-04-21T16:34:24.990Z,15.87
2023-04-21T16:36:54.742Z,15.91
2023-04-21T16:39:23.236Z,15.88
2023-04-21T16:41:51.740Z,15.82
2023-04-21T16:44:20.711Z,15.91
2023-04-21T16:46:49.167Z,15.93
2023-04-21T16:49:17.963Z,15.91
2023-04-21T16:51:46.405Z,15.87
2023-04-21T16:54:16.119Z,15.80
2023-04-21T16:56:44.570Z,15.71
2023-04-21T16:59:13.023Z,15.72
2023-04-21T17:01:41.723Z,15.59
2023-04-21T17:04:14.152Z,15.53
2023-04-21T17:06:42.728Z,15.49
2023-04-21T17:09:11.183Z,15.55
2023-04-21T17:11:41.032Z,15.48
2023-04-21T17:14:09.365Z,15.42
2023-04-21T17:16:37.945Z,15.35
2023-04-21T17:19:06.634Z,15.30
2023-04-21T17:21:35.033Z,15.29
2023-04-21T17:24:03.630Z,15.24
2023-04-21T17:26:32.055Z,15.17
2023-04-21T17:29:02.515Z,15.20
2023-04-21T17:31:33.098Z,15.21
2023-04-21T17:34:01.659Z,15.09
2023-04-21T17:36:30.915Z,14.96
2023-04-21T17:39:00.038Z,14.97
2023-04-21T17:41:28.941Z,14.84
2023-04-21T17:43:57.271Z,14.78
2023-04-21T17:46:27.419Z,14.58
2023-04-21T17:48:56.269Z,14.61
2023-04-21T17:51:24.944Z,14.44
2023-04-21T17:53:53.347Z,14.25
2023-04-21T17:56:22.478Z,14.23
2023-04-21T17:58:50.887Z,14.02
2023-04-21T18:01:19.722Z,13.88
2023-04-21T18:03:49.596Z,13.87
2023-04-21T18:06:18.277Z,13.71
2023-04-21T18:08:46.732Z,13.55
2023-04-21T18:11:15.604Z,13.48
2023-04-21T18:13:44.193Z,13.34
2023-04-21T18:16:12.791Z,13.32
2023-04-21T18:18:41.686Z,13.17
2023-04-21T18:21:11.965Z,13.06
2023-04-21T18:23:43.149Z,12.90
2023-04-21T18:26:12.300Z,12.78
2023-04-21T18:28:41.236Z,12.68
2023-04-21T18:31:10.564Z,12.54
2023-04-21T18:33:41.215Z,12.47
2023-04-21T18:36:12.005Z,12.35
2023-04-21T18:38:40.443Z,12.20
2023-04-21T18:41:08.834Z,12.09
2023-04-21T18:43:39.212Z,11.99
2023-04-21T18:46:10.113Z,11.99
2023-04-21T18:48:40.164Z,11.89
2023-04-21T18:51:09.082Z,11.66
2023-04-21T18:53:39.290Z,11.62
2023-04-21T18:56:07.879Z,11.53
2023-04-21T18:58:36.694Z,11.53
2023-04-21T19:01:05.736Z,11.46
2023-04-21T19:03:34.939Z,11.39
2023-04-21T19:06:03.881Z,11.21
2023-04-21T19:08:42.181Z,11.11
2023-04-21T19:11:15.115Z,11.02
2023-04-21T19:13:45.523Z,10.95
2023-04-21T19:16:14.845Z,10.94
2023-04-21T19:18:44.446Z,10.78
2023-04-21T19:21:16.327Z,10.67
2023-04-21T19:23:48.177Z,10.63
2023-04-21T19:26:22.080Z,10.59
2023-04-21T19:28:53.986Z,10.43
2023-04-21T19:31:24.997Z,10.41
2023-04-21T19:33:54.323Z,10.35
2023-04-21T19:36:23.930Z,10.24
2023-04-21T19:38:53.422Z,10.20
2023-04-21T19:41:25.068Z,10.12
2023-04-21T19:43:56.946Z,10.00
2023-04-21T19:46:26.585Z,9.92
2023-04-21T19:48:57.068Z,9.90
2023-04-21T19:51:25.991Z,9.85
2023-04-21T19:54:09.924Z,9.80
2023-04-21T19:56:42.645Z,9.78
2023-04-21T19:59:12.101Z,9.69
2023-04-21T20:01:41.139Z,9.61
2023-04-21T20:04:12.014Z,9.63
2023-04-21T20:06:41.815Z,9.65
2023-04-21T20:09:10.625Z,9.54
2023-04-21T20:11:39.143Z,9.46
2023-04-21T20:14:09.446Z,9.42
2023-04-21T20:16:39.752Z,9.33
2023-04-21T20:19:09.583Z,9.37
2023-04-21T20:21:38.325Z,9.25
2023-04-21T20:24:08.751Z,9.17
2023-04-21T20:26:37.385Z,9.21
2023-04-21T20:29:05.933Z,9.17
2023-04-21T20:31:36.942Z,9.15
2023-04-21T20:34:05.318Z,9.12
2023-04-21T20:36:37.146Z,9.16
2023-04-21T20:39:07.078Z,9.12
2023-04-21T20:41:35.766Z,9.07
2023-04-21T20:44:04.164Z,8.92
2023-04-21T20:46:32.567Z,8.95
2023-04-21T20:49:02.434Z,8.95
2023-04-21T20:51:30.762Z,8.91
2023-04-21T20:53:59.625Z,8.89
2023-04-21T20:56:28.158Z,8.83
2023-04-21T20:58:56.930Z,8.86
2023-04-21T21:01:26.013Z,8.81
2023-04-21T21:03:56.450Z,8.87
2023-04-21T21:06:26.333Z,8.93
2023-04-21T21:08:55.054Z,8.93
2023-04-21T21:11:23.558Z,8.98
2023-04-21T21:13:52.344Z,8.94
2023-04-21T21:16:20.999Z,8.95
2023-04-21T21:18:49.536Z,9.02
2023-04-21T21:21:18.005Z,9.04
2023-04-21T21:23:47.792Z,9.01
2023-04-21T21:26:16.324Z,9.00
2023-04-21T21:28:44.679Z,8.97
2023-04-21T21:31:12.855Z,9.00
2023-04-21T21:33:41.112Z,9.05
2023-04-21T21:36:09.640Z,9.05
2023-04-21T21:38:38.166Z,9.11
2023-04-21T21:41:10.362Z,9.08
2023-04-21T21:43:38.800Z,9.14
2023-04-21T21:46:07.438Z,9.17
2023-04-21T21:48:35.798Z,9.17
2023-04-21T21:51:05.414Z,9.25
2023-04-21T21:53:34.203Z,9.30
2023-04-21T21:56:02.436Z,9.26
2023-04-21T21:58:32.511Z,9.31
2023-04-21T22:01:00.943Z,9.32
2023-04-21T22:03:29.759Z,9.32
2023-04-21T22:05:58.215Z,9.34
2023-04-21T22:08:26.931Z,9.34
2023-04-21T22:10:57.167Z,9.25
2023-04-21T22:13:25.485Z,9.23
2023-04-21T22:15:55.221Z,9.15
2023-04-21T22:18:23.835Z,9.04
2023-04-21T22:20:52.306Z,9.07
2023-04-21T22:23:21.576Z,9.09
2023-04-21T22:25:49.846Z,9.09
2023-04-21T22:28:18.187Z,9.12
2023-04-21T22:30:46.646Z,9.14
2023-04-21T22:33:16.472Z,9.18
2023-04-21T22:35:44.830Z,9.14
2023-04-21T22:38:13.314Z,9.02
2023-04-21T22:40:41.690Z,9.06
2023-04-21T22:43:10.023Z,8.97
2023-04-21T22:45:38.390Z,8.91
2023-04-21T22:48:07.953Z,8.85
2023-04-21T22:50:37.639Z,8.74
2023-04-21T22:53:06.120Z,8.62
2023-04-21T22:55:34.297Z,8.66
2023-04-21T22:58:02.664Z,8.64
2023-04-21T23:00:31.147Z,8.52
2023-04-21T23:02:59.672Z,8.48
2023-04-21T23:05:28.327Z,8.40
2023-04-21T23:07:57.872Z,8.25
2023-04-21T23:10:26.096Z,8.23
2023-04-21T23:12:54.618Z,8.22
2023-04-21T23:15:22.829Z,8.22
2023-04-21T23:17:51.494Z,8.17
2023-04-21T23:20:20.029Z,8.15
2023-04-21T23:22:48.316Z,8.10
2023-04-21T23:25:18.288Z,8.10
2023-04-21T23:27:46.641Z,7.99
2023-04-21T23:30:15.098Z,7.97
2023-04-21T23:32:43.850Z,7.87
2023-04-21T23:35:12.378Z,7.84
2023-04-21T23:37:40.743Z,7.81
2023-04-21T23:40:11.437Z,7.71
2023-04-21T23:42:41.592Z,7.62
2023-04-21T23:45:16.048Z,7.60
2023-04-21T23:47:45.873Z,7.51
2023-04-21T23:50:14.260Z,7.40
2023-04-21T23:52:44.244Z,7.37
2023-04-21T23:55:13.222Z,7.29
2023-04-21T23:57:44.737Z,7.20
